Aviation Digital Data Service (ADDS)

Output produced by METARs form (2226 UTC 16 February 2019)
found at http://www.aviationweather.gov/metar/data/
 
Forecast for: UIAA (CITA/KADALA , RU)
Text: TAF UIAA 162000Z 1621/1721 22003G08MPS 9999 NSC
Forecast period: 2100 UTC 16 February 2019 to 2100 UTC 17 February 2019
Forecast type: FROM: standard forecast or significant change
Winds: from the SW (220 degrees) at 7 MPH (6 knots; 3.1 m/s)
gusting to 18 MPH (16 knots; 8.2 m/s)
Visibility: 6 or more miles 10+ km)
Ceiling: unknown
Clouds: missing
Weather: no significant weather forecast for this period